<?xml version="1.0" encoding="UTF-8" standalone="no" ?>
<gpx xmlns="http://www.topografix.com/GPX/1/1" xmlns:xsi="http://www.w3.org/2001/XMLSchema-instance" xsi:schemaLocation="http://www.topografix.com/GPX/1/1 http://www.topografix.com/GPX/1/1/gpx.xsd" version="1.1" creator="VisuGPX - https://www.visugpx.com">
  <metadata>
    <name>Sur les pas des anglais - Troissereux </name>
    <desc><![CDATA[Au départ de la mairie de Troissereux.]]></desc>
  </metadata>
  <trk>
    <name><![CDATA[sur les pas des anglais - Troissereux]]></name>
    <desc><![CDATA[<h1>OruxMaps</h1><br /><hr align="center" width="480" style="height: 2px; width: 517px"/><h2>Nom: sur les pas des anglais - Troissereux</h2><br /><p>Temps de départ: 04/07/2013 13:53</p><p>Temps d'arrivée: 04/07/2013 15:59</p><p>Distance: 9,9 km (02:06)</p><p>Temps déplacement: 02:03</p><p>Vitesse moyenne: 4,7 km/h</p><p>Vitesse moyenne: 4,8 km/h</p><p>Vitess Max.: 14 km/h</p><p>Altitude minimale: 59 m</p><p>Altitude maximale: 137 m</p><p>Vitesse d'élévation: 274,1 m/h</p><p>Vitesse de descente: -225,7 m/h</p><p>Gain Altitude: 159 m</p><p>Perte Altitude: -160 m</p><p>Temps d'élévation: 00:34</p><p>Temps de descente: 00:42</p><hr align="center" width="480" style="height: 2px; width: 517px"/>]]></desc>
    <trkseg>
      <trkpt lat="49.47905" lon="2.04509">
        <ele>63.85</ele>
        <time>2013-04-07T11:53:11Z</time>
      </trkpt>
      <trkpt lat="49.47922" lon="2.04522">
        <ele>66.08</ele>
        <time>2013-04-07T11:53:51Z</time>
      </trkpt>
      <trkpt lat="49.47934" lon="2.04543">
        <ele>65.73</ele>
        <time>2013-04-07T11:54:11Z</time>
      </trkpt>
      <trkpt lat="49.47953" lon="2.0455">
        <ele>70.07</ele>
        <time>2013-04-07T11:54:36Z</time>
      </trkpt>
      <trkpt lat="49.47971" lon="2.04542">
        <ele>73.03</ele>
        <time>2013-04-07T11:54:49Z</time>
      </trkpt>
      <trkpt lat="49.47989" lon="2.04534">
        <ele>72.13</ele>
        <time>2013-04-07T11:55:07Z</time>
      </trkpt>
      <trkpt lat="49.48006" lon="2.04521">
        <ele>72.07</ele>
        <time>2013-04-07T11:55:22Z</time>
      </trkpt>
      <trkpt lat="49.48021" lon="2.04507">
        <ele>70.18</ele>
        <time>2013-04-07T11:55:37Z</time>
      </trkpt>
      <trkpt lat="49.48039" lon="2.04516">
        <ele>67.27</ele>
        <time>2013-04-07T11:55:53Z</time>
      </trkpt>
      <trkpt lat="49.48048" lon="2.0454">
        <ele>62.6</ele>
        <time>2013-04-07T11:56:09Z</time>
      </trkpt>
      <trkpt lat="49.48063" lon="2.04558">
        <ele>59.66</ele>
        <time>2013-04-07T11:56:25Z</time>
      </trkpt>
      <trkpt lat="49.48079" lon="2.04572">
        <ele>60.52</ele>
        <time>2013-04-07T11:56:38Z</time>
      </trkpt>
      <trkpt lat="49.48089" lon="2.04596">
        <ele>61.54</ele>
        <time>2013-04-07T11:56:54Z</time>
      </trkpt>
      <trkpt lat="49.48104" lon="2.04612">
        <ele>63.26</ele>
        <time>2013-04-07T11:57:08Z</time>
      </trkpt>
      <trkpt lat="49.48122" lon="2.04603">
        <ele>65.46</ele>
        <time>2013-04-07T11:57:24Z</time>
      </trkpt>
      <trkpt lat="49.48139" lon="2.04591">
        <ele>68.12</ele>
        <time>2013-04-07T11:57:39Z</time>
      </trkpt>
      <trkpt lat="49.48158" lon="2.04588">
        <ele>70.73</ele>
        <time>2013-04-07T11:57:55Z</time>
      </trkpt>
      <trkpt lat="49.48177" lon="2.04587">
        <ele>72.09</ele>
        <time>2013-04-07T11:58:13Z</time>
      </trkpt>
      <trkpt lat="49.48196" lon="2.04584">
        <ele>72.93</ele>
        <time>2013-04-07T11:58:26Z</time>
      </trkpt>
      <trkpt lat="49.48215" lon="2.04582">
        <ele>73.89</ele>
        <time>2013-04-07T11:58:43Z</time>
      </trkpt>
      <trkpt lat="49.48233" lon="2.04581">
        <ele>73.57</ele>
        <time>2013-04-07T11:58:57Z</time>
      </trkpt>
      <trkpt lat="49.48252" lon="2.04585">
        <ele>73.83</ele>
        <time>2013-04-07T11:59:12Z</time>
      </trkpt>
      <trkpt lat="49.4827" lon="2.0458">
        <ele>73.17</ele>
        <time>2013-04-07T11:59:26Z</time>
      </trkpt>
      <trkpt lat="49.48289" lon="2.04577">
        <ele>75.14</ele>
        <time>2013-04-07T11:59:40Z</time>
      </trkpt>
      <trkpt lat="49.48307" lon="2.04574">
        <ele>78.14</ele>
        <time>2013-04-07T11:59:58Z</time>
      </trkpt>
      <trkpt lat="49.48324" lon="2.04565">
        <ele>79.64</ele>
        <time>2013-04-07T12:00:12Z</time>
      </trkpt>
      <trkpt lat="49.48342" lon="2.04558">
        <ele>80.2</ele>
        <time>2013-04-07T12:00:25Z</time>
      </trkpt>
      <trkpt lat="49.4836" lon="2.04554">
        <ele>80.42</ele>
        <time>2013-04-07T12:00:39Z</time>
      </trkpt>
      <trkpt lat="49.48378" lon="2.04545">
        <ele>81.37</ele>
        <time>2013-04-07T12:00:56Z</time>
      </trkpt>
      <trkpt lat="49.48396" lon="2.04541">
        <ele>83.6</ele>
        <time>2013-04-07T12:01:12Z</time>
      </trkpt>
      <trkpt lat="49.48414" lon="2.04533">
        <ele>84.86</ele>
        <time>2013-04-07T12:01:27Z</time>
      </trkpt>
      <trkpt lat="49.48432" lon="2.04527">
        <ele>85.7</ele>
        <time>2013-04-07T12:01:41Z</time>
      </trkpt>
      <trkpt lat="49.4845" lon="2.04523">
        <ele>85.73</ele>
        <time>2013-04-07T12:01:55Z</time>
      </trkpt>
      <trkpt lat="49.48469" lon="2.04519">
        <ele>87.88</ele>
        <time>2013-04-07T12:02:10Z</time>
      </trkpt>
      <trkpt lat="49.48488" lon="2.04516">
        <ele>88.63</ele>
        <time>2013-04-07T12:02:28Z</time>
      </trkpt>
      <trkpt lat="49.48507" lon="2.04515">
        <ele>89.77</ele>
        <time>2013-04-07T12:02:44Z</time>
      </trkpt>
      <trkpt lat="49.48525" lon="2.04509">
        <ele>93.39</ele>
        <time>2013-04-07T12:02:59Z</time>
      </trkpt>
      <trkpt lat="49.48545" lon="2.04508">
        <ele>95.62</ele>
        <time>2013-04-07T12:03:14Z</time>
      </trkpt>
      <trkpt lat="49.48564" lon="2.04506">
        <ele>96.57</ele>
        <time>2013-04-07T12:03:30Z</time>
      </trkpt>
      <trkpt lat="49.48582" lon="2.04503">
        <ele>97.68</ele>
        <time>2013-04-07T12:03:46Z</time>
      </trkpt>
      <trkpt lat="49.48601" lon="2.04502">
        <ele>97.08</ele>
        <time>2013-04-07T12:04:02Z</time>
      </trkpt>
      <trkpt lat="49.48619" lon="2.04499">
        <ele>96.04</ele>
        <time>2013-04-07T12:04:16Z</time>
      </trkpt>
      <trkpt lat="49.48637" lon="2.045">
        <ele>96.86</ele>
        <time>2013-04-07T12:04:30Z</time>
      </trkpt>
      <trkpt lat="49.48655" lon="2.04495">
        <ele>97.44</ele>
        <time>2013-04-07T12:04:45Z</time>
      </trkpt>
      <trkpt lat="49.48674" lon="2.04495">
        <ele>97.7</ele>
        <time>2013-04-07T12:05:00Z</time>
      </trkpt>
      <trkpt lat="49.48693" lon="2.04495">
        <ele>98.94</ele>
        <time>2013-04-07T12:05:16Z</time>
      </trkpt>
      <trkpt lat="49.48711" lon="2.04495">
        <ele>99.64</ele>
        <time>2013-04-07T12:05:31Z</time>
      </trkpt>
      <trkpt lat="49.48729" lon="2.04492">
        <ele>101.45</ele>
        <time>2013-04-07T12:05:48Z</time>
      </trkpt>
      <trkpt lat="49.48747" lon="2.04493">
        <ele>104</ele>
        <time>2013-04-07T12:06:03Z</time>
      </trkpt>
      <trkpt lat="49.48766" lon="2.04494">
        <ele>103.89</ele>
        <time>2013-04-07T12:06:18Z</time>
      </trkpt>
      <trkpt lat="49.48785" lon="2.04493">
        <ele>103.45</ele>
        <time>2013-04-07T12:06:33Z</time>
      </trkpt>
      <trkpt lat="49.48803" lon="2.04495">
        <ele>103.59</ele>
        <time>2013-04-07T12:06:47Z</time>
      </trkpt>
      <trkpt lat="49.48821" lon="2.04495">
        <ele>104.03</ele>
        <time>2013-04-07T12:07:02Z</time>
      </trkpt>
      <trkpt lat="49.48839" lon="2.04496">
        <ele>104.43</ele>
        <time>2013-04-07T12:07:19Z</time>
      </trkpt>
      <trkpt lat="49.48858" lon="2.04494">
        <ele>104.31</ele>
        <time>2013-04-07T12:07:33Z</time>
      </trkpt>
      <trkpt lat="49.48876" lon="2.04494">
        <ele>105.18</ele>
        <time>2013-04-07T12:07:49Z</time>
      </trkpt>
      <trkpt lat="49.48895" lon="2.04498">
        <ele>104.12</ele>
        <time>2013-04-07T12:08:04Z</time>
      </trkpt>
      <trkpt lat="49.48913" lon="2.04497">
        <ele>104.99</ele>
        <time>2013-04-07T12:08:21Z</time>
      </trkpt>
      <trkpt lat="49.48932" lon="2.04499">
        <ele>105.28</ele>
        <time>2013-04-07T12:08:38Z</time>
      </trkpt>
      <trkpt lat="49.4895" lon="2.04501">
        <ele>105.3</ele>
        <time>2013-04-07T12:08:54Z</time>
      </trkpt>
      <trkpt lat="49.48968" lon="2.04509">
        <ele>104.91</ele>
        <time>2013-04-07T12:09:11Z</time>
      </trkpt>
      <trkpt lat="49.48986" lon="2.04519">
        <ele>104.43</ele>
        <time>2013-04-07T12:09:29Z</time>
      </trkpt>
      <trkpt lat="49.49002" lon="2.04531">
        <ele>103.9</ele>
        <time>2013-04-07T12:09:45Z</time>
      </trkpt>
      <trkpt lat="49.4902" lon="2.0454">
        <ele>104.13</ele>
        <time>2013-04-07T12:10:00Z</time>
      </trkpt>
      <trkpt lat="49.49037" lon="2.04552">
        <ele>103.2</ele>
        <time>2013-04-07T12:10:14Z</time>
      </trkpt>
      <trkpt lat="49.49054" lon="2.04561">
        <ele>103.49</ele>
        <time>2013-04-07T12:10:30Z</time>
      </trkpt>
      <trkpt lat="49.49071" lon="2.04574">
        <ele>102.99</ele>
        <time>2013-04-07T12:10:46Z</time>
      </trkpt>
      <trkpt lat="49.49088" lon="2.04586">
        <ele>104.08</ele>
        <time>2013-04-07T12:11:00Z</time>
      </trkpt>
      <trkpt lat="49.49106" lon="2.04595">
        <ele>104.61</ele>
        <time>2013-04-07T12:11:14Z</time>
      </trkpt>
      <trkpt lat="49.49123" lon="2.04606">
        <ele>103.85</ele>
        <time>2013-04-07T12:11:29Z</time>
      </trkpt>
      <trkpt lat="49.4914" lon="2.04617">
        <ele>102.94</ele>
        <time>2013-04-07T12:11:46Z</time>
      </trkpt>
      <trkpt lat="49.49158" lon="2.04627">
        <ele>101.17</ele>
        <time>2013-04-07T12:12:00Z</time>
      </trkpt>
      <trkpt lat="49.49176" lon="2.04629">
        <ele>101.93</ele>
        <time>2013-04-07T12:12:15Z</time>
      </trkpt>
      <trkpt lat="49.49195" lon="2.0463">
        <ele>101.95</ele>
        <time>2013-04-07T12:12:31Z</time>
      </trkpt>
      <trkpt lat="49.49214" lon="2.04631">
        <ele>100.91</ele>
        <time>2013-04-07T12:12:47Z</time>
      </trkpt>
      <trkpt lat="49.49232" lon="2.04627">
        <ele>102.16</ele>
        <time>2013-04-07T12:13:02Z</time>
      </trkpt>
      <trkpt lat="49.49241" lon="2.04602">
        <ele>103.36</ele>
        <time>2013-04-07T12:13:31Z</time>
      </trkpt>
      <trkpt lat="49.49246" lon="2.04574">
        <ele>103.3</ele>
        <time>2013-04-07T12:13:46Z</time>
      </trkpt>
      <trkpt lat="49.49251" lon="2.04546">
        <ele>102.02</ele>
        <time>2013-04-07T12:14:01Z</time>
      </trkpt>
      <trkpt lat="49.49254" lon="2.04517">
        <ele>101.74</ele>
        <time>2013-04-07T12:14:16Z</time>
      </trkpt>
      <trkpt lat="49.49255" lon="2.04488">
        <ele>104.84</ele>
        <time>2013-04-07T12:14:31Z</time>
      </trkpt>
      <trkpt lat="49.4926" lon="2.04461">
        <ele>104.92</ele>
        <time>2013-04-07T12:14:45Z</time>
      </trkpt>
      <trkpt lat="49.49264" lon="2.04433">
        <ele>106.37</ele>
        <time>2013-04-07T12:15:01Z</time>
      </trkpt>
      <trkpt lat="49.49272" lon="2.04407">
        <ele>103.82</ele>
        <time>2013-04-07T12:15:17Z</time>
      </trkpt>
      <trkpt lat="49.49289" lon="2.04398">
        <ele>103.5</ele>
        <time>2013-04-07T12:15:34Z</time>
      </trkpt>
      <trkpt lat="49.49308" lon="2.04394">
        <ele>103.7</ele>
        <time>2013-04-07T12:15:50Z</time>
      </trkpt>
      <trkpt lat="49.49327" lon="2.04393">
        <ele>104.27</ele>
        <time>2013-04-07T12:16:07Z</time>
      </trkpt>
      <trkpt lat="49.49343" lon="2.04382">
        <ele>105.87</ele>
        <time>2013-04-07T12:16:23Z</time>
      </trkpt>
      <trkpt lat="49.49362" lon="2.04375">
        <ele>105</ele>
        <time>2013-04-07T12:16:39Z</time>
      </trkpt>
      <trkpt lat="49.4938" lon="2.04368">
        <ele>105.58</ele>
        <time>2013-04-07T12:16:55Z</time>
      </trkpt>
      <trkpt lat="49.49397" lon="2.04355">
        <ele>105.27</ele>
        <time>2013-04-07T12:17:09Z</time>
      </trkpt>
      <trkpt lat="49.49413" lon="2.04341">
        <ele>105.37</ele>
        <time>2013-04-07T12:17:21Z</time>
      </trkpt>
      <trkpt lat="49.49424" lon="2.04317">
        <ele>105.82</ele>
        <time>2013-04-07T12:17:36Z</time>
      </trkpt>
      <trkpt lat="49.49433" lon="2.04294">
        <ele>105.15</ele>
        <time>2013-04-07T12:17:52Z</time>
      </trkpt>
      <trkpt lat="49.49438" lon="2.04322">
        <ele>105.19</ele>
        <time>2013-04-07T12:18:58Z</time>
      </trkpt>
      <trkpt lat="49.49448" lon="2.04347">
        <ele>104.41</ele>
        <time>2013-04-07T12:19:16Z</time>
      </trkpt>
      <trkpt lat="49.49459" lon="2.04371">
        <ele>104.65</ele>
        <time>2013-04-07T12:19:30Z</time>
      </trkpt>
      <trkpt lat="49.49469" lon="2.04394">
        <ele>103.31</ele>
        <time>2013-04-07T12:19:45Z</time>
      </trkpt>
      <trkpt lat="49.49479" lon="2.04419">
        <ele>102.95</ele>
        <time>2013-04-07T12:20:01Z</time>
      </trkpt>
      <trkpt lat="49.4949" lon="2.04441">
        <ele>102.31</ele>
        <time>2013-04-07T12:20:16Z</time>
      </trkpt>
      <trkpt lat="49.49501" lon="2.04464">
        <ele>100.24</ele>
        <time>2013-04-07T12:20:30Z</time>
      </trkpt>
      <trkpt lat="49.49505" lon="2.04493">
        <ele>97.88</ele>
        <time>2013-04-07T12:20:45Z</time>
      </trkpt>
      <trkpt lat="49.49513" lon="2.04519">
        <ele>95.65</ele>
        <time>2013-04-07T12:21:03Z</time>
      </trkpt>
      <trkpt lat="49.49516" lon="2.04547">
        <ele>95.84</ele>
        <time>2013-04-07T12:21:18Z</time>
      </trkpt>
      <trkpt lat="49.49518" lon="2.04575">
        <ele>95.96</ele>
        <time>2013-04-07T12:21:32Z</time>
      </trkpt>
      <trkpt lat="49.49522" lon="2.04604">
        <ele>93.69</ele>
        <time>2013-04-07T12:21:47Z</time>
      </trkpt>
      <trkpt lat="49.49535" lon="2.04624">
        <ele>89.71</ele>
        <time>2013-04-07T12:22:04Z</time>
      </trkpt>
      <trkpt lat="49.49552" lon="2.04634">
        <ele>87.56</ele>
        <time>2013-04-07T12:22:21Z</time>
      </trkpt>
      <trkpt lat="49.49569" lon="2.04646">
        <ele>86.37</ele>
        <time>2013-04-07T12:22:35Z</time>
      </trkpt>
      <trkpt lat="49.49586" lon="2.0466">
        <ele>83.93</ele>
        <time>2013-04-07T12:22:50Z</time>
      </trkpt>
      <trkpt lat="49.49602" lon="2.04672">
        <ele>84.27</ele>
        <time>2013-04-07T12:23:07Z</time>
      </trkpt>
      <trkpt lat="49.49619" lon="2.04683">
        <ele>85.42</ele>
        <time>2013-04-07T12:23:21Z</time>
      </trkpt>
      <trkpt lat="49.49638" lon="2.04687">
        <ele>84</ele>
        <time>2013-04-07T12:23:43Z</time>
      </trkpt>
      <trkpt lat="49.49654" lon="2.04698">
        <ele>86.74</ele>
        <time>2013-04-07T12:24:18Z</time>
      </trkpt>
      <trkpt lat="49.49643" lon="2.04676">
        <ele>88.61</ele>
        <time>2013-04-07T12:25:15Z</time>
      </trkpt>
      <trkpt lat="49.49656" lon="2.04656">
        <ele>87.35</ele>
        <time>2013-04-07T12:26:01Z</time>
      </trkpt>
      <trkpt lat="49.49669" lon="2.04636">
        <ele>87.11</ele>
        <time>2013-04-07T12:26:13Z</time>
      </trkpt>
      <trkpt lat="49.49681" lon="2.04615">
        <ele>85.64</ele>
        <time>2013-04-07T12:26:29Z</time>
      </trkpt>
      <trkpt lat="49.49696" lon="2.04597">
        <ele>86.81</ele>
        <time>2013-04-07T12:26:43Z</time>
      </trkpt>
      <trkpt lat="49.49709" lon="2.04576">
        <ele>85.66</ele>
        <time>2013-04-07T12:26:58Z</time>
      </trkpt>
      <trkpt lat="49.49721" lon="2.04555">
        <ele>86.55</ele>
        <time>2013-04-07T12:27:13Z</time>
      </trkpt>
      <trkpt lat="49.49733" lon="2.04533">
        <ele>89.17</ele>
        <time>2013-04-07T12:27:27Z</time>
      </trkpt>
      <trkpt lat="49.49747" lon="2.04515">
        <ele>90.5</ele>
        <time>2013-04-07T12:27:40Z</time>
      </trkpt>
      <trkpt lat="49.49762" lon="2.04497">
        <ele>92.37</ele>
        <time>2013-04-07T12:27:54Z</time>
      </trkpt>
      <trkpt lat="49.49776" lon="2.04476">
        <ele>93.47</ele>
        <time>2013-04-07T12:28:09Z</time>
      </trkpt>
      <trkpt lat="49.49791" lon="2.04459">
        <ele>92.95</ele>
        <time>2013-04-07T12:28:24Z</time>
      </trkpt>
      <trkpt lat="49.49804" lon="2.04437">
        <ele>92.83</ele>
        <time>2013-04-07T12:28:40Z</time>
      </trkpt>
      <trkpt lat="49.49812" lon="2.04411">
        <ele>92.48</ele>
        <time>2013-04-07T12:28:53Z</time>
      </trkpt>
      <trkpt lat="49.49826" lon="2.04392">
        <ele>94.96</ele>
        <time>2013-04-07T12:29:07Z</time>
      </trkpt>
      <trkpt lat="49.4984" lon="2.04373">
        <ele>97.27</ele>
        <time>2013-04-07T12:29:23Z</time>
      </trkpt>
      <trkpt lat="49.49853" lon="2.04352">
        <ele>98.32</ele>
        <time>2013-04-07T12:29:39Z</time>
      </trkpt>
      <trkpt lat="49.49864" lon="2.0433">
        <ele>99.02</ele>
        <time>2013-04-07T12:29:54Z</time>
      </trkpt>
      <trkpt lat="49.49876" lon="2.04309">
        <ele>100.67</ele>
        <time>2013-04-07T12:30:09Z</time>
      </trkpt>
      <trkpt lat="49.4989" lon="2.04291">
        <ele>102.01</ele>
        <time>2013-04-07T12:30:22Z</time>
      </trkpt>
      <trkpt lat="49.49904" lon="2.04273">
        <ele>104.13</ele>
        <time>2013-04-07T12:30:38Z</time>
      </trkpt>
      <trkpt lat="49.49916" lon="2.04252">
        <ele>106.39</ele>
        <time>2013-04-07T12:30:52Z</time>
      </trkpt>
      <trkpt lat="49.49929" lon="2.04231">
        <ele>106.4</ele>
        <time>2013-04-07T12:31:10Z</time>
      </trkpt>
      <trkpt lat="49.49941" lon="2.04211">
        <ele>105.97</ele>
        <time>2013-04-07T12:31:25Z</time>
      </trkpt>
      <trkpt lat="49.49953" lon="2.04189">
        <ele>103.87</ele>
        <time>2013-04-07T12:31:41Z</time>
      </trkpt>
      <trkpt lat="49.49966" lon="2.04167">
        <ele>106.19</ele>
        <time>2013-04-07T12:31:56Z</time>
      </trkpt>
      <trkpt lat="49.49979" lon="2.04147">
        <ele>109.76</ele>
        <time>2013-04-07T12:32:12Z</time>
      </trkpt>
      <trkpt lat="49.49993" lon="2.04131">
        <ele>109.56</ele>
        <time>2013-04-07T12:32:29Z</time>
      </trkpt>
      <trkpt lat="49.5001" lon="2.04117">
        <ele>109.08</ele>
        <time>2013-04-07T12:32:45Z</time>
      </trkpt>
      <trkpt lat="49.50027" lon="2.04105">
        <ele>109.47</ele>
        <time>2013-04-07T12:33:01Z</time>
      </trkpt>
      <trkpt lat="49.50044" lon="2.04091">
        <ele>108.9</ele>
        <time>2013-04-07T12:33:18Z</time>
      </trkpt>
      <trkpt lat="49.50061" lon="2.04082">
        <ele>108.37</ele>
        <time>2013-04-07T12:33:34Z</time>
      </trkpt>
      <trkpt lat="49.50077" lon="2.04069">
        <ele>108.67</ele>
        <time>2013-04-07T12:33:48Z</time>
      </trkpt>
      <trkpt lat="49.50093" lon="2.04055">
        <ele>108.38</ele>
        <time>2013-04-07T12:34:05Z</time>
      </trkpt>
      <trkpt lat="49.50109" lon="2.04042">
        <ele>106.9</ele>
        <time>2013-04-07T12:34:20Z</time>
      </trkpt>
      <trkpt lat="49.50127" lon="2.04032">
        <ele>108.65</ele>
        <time>2013-04-07T12:34:37Z</time>
      </trkpt>
      <trkpt lat="49.50143" lon="2.04016">
        <ele>109.22</ele>
        <time>2013-04-07T12:34:56Z</time>
      </trkpt>
      <trkpt lat="49.5016" lon="2.04003">
        <ele>109.09</ele>
        <time>2013-04-07T12:35:12Z</time>
      </trkpt>
      <trkpt lat="49.50177" lon="2.03991">
        <ele>108.95</ele>
        <time>2013-04-07T12:35:29Z</time>
      </trkpt>
      <trkpt lat="49.50193" lon="2.03975">
        <ele>109.32</ele>
        <time>2013-04-07T12:35:45Z</time>
      </trkpt>
      <trkpt lat="49.5021" lon="2.03968">
        <ele>109.26</ele>
        <time>2013-04-07T12:35:58Z</time>
      </trkpt>
      <trkpt lat="49.50226" lon="2.03952">
        <ele>108.08</ele>
        <time>2013-04-07T12:36:14Z</time>
      </trkpt>
      <trkpt lat="49.50243" lon="2.0394">
        <ele>107.57</ele>
        <time>2013-04-07T12:36:30Z</time>
      </trkpt>
      <trkpt lat="49.50259" lon="2.03927">
        <ele>108.79</ele>
        <time>2013-04-07T12:36:46Z</time>
      </trkpt>
      <trkpt lat="49.50277" lon="2.03915">
        <ele>109.73</ele>
        <time>2013-04-07T12:37:01Z</time>
      </trkpt>
      <trkpt lat="49.50294" lon="2.03903">
        <ele>108.16</ele>
        <time>2013-04-07T12:37:18Z</time>
      </trkpt>
      <trkpt lat="49.5031" lon="2.03891">
        <ele>108.59</ele>
        <time>2013-04-07T12:37:38Z</time>
      </trkpt>
      <trkpt lat="49.50328" lon="2.0388">
        <ele>109.16</ele>
        <time>2013-04-07T12:37:52Z</time>
      </trkpt>
      <trkpt lat="49.50344" lon="2.03862">
        <ele>109.39</ele>
        <time>2013-04-07T12:38:10Z</time>
      </trkpt>
      <trkpt lat="49.50355" lon="2.0384">
        <ele>110.5</ele>
        <time>2013-04-07T12:38:24Z</time>
      </trkpt>
      <trkpt lat="49.5037" lon="2.03823">
        <ele>115.29</ele>
        <time>2013-04-07T12:38:41Z</time>
      </trkpt>
      <trkpt lat="49.50386" lon="2.03807">
        <ele>116.28</ele>
        <time>2013-04-07T12:38:56Z</time>
      </trkpt>
      <trkpt lat="49.50402" lon="2.03796">
        <ele>117.73</ele>
        <time>2013-04-07T12:39:14Z</time>
      </trkpt>
      <trkpt lat="49.50421" lon="2.03797">
        <ele>117.95</ele>
        <time>2013-04-07T12:39:34Z</time>
      </trkpt>
      <trkpt lat="49.5044" lon="2.03798">
        <ele>117.76</ele>
        <time>2013-04-07T12:39:48Z</time>
      </trkpt>
      <trkpt lat="49.50459" lon="2.03804">
        <ele>117.45</ele>
        <time>2013-04-07T12:40:03Z</time>
      </trkpt>
      <trkpt lat="49.50476" lon="2.03815">
        <ele>115.26</ele>
        <time>2013-04-07T12:40:18Z</time>
      </trkpt>
      <trkpt lat="49.50493" lon="2.03823">
        <ele>114.12</ele>
        <time>2013-04-07T12:40:34Z</time>
      </trkpt>
      <trkpt lat="49.50512" lon="2.03829">
        <ele>114.89</ele>
        <time>2013-04-07T12:40:48Z</time>
      </trkpt>
      <trkpt lat="49.50529" lon="2.03841">
        <ele>114.92</ele>
        <time>2013-04-07T12:41:05Z</time>
      </trkpt>
      <trkpt lat="49.50547" lon="2.03852">
        <ele>114.76</ele>
        <time>2013-04-07T12:41:21Z</time>
      </trkpt>
      <trkpt lat="49.50564" lon="2.03862">
        <ele>111.53</ele>
        <time>2013-04-07T12:41:35Z</time>
      </trkpt>
      <trkpt lat="49.50581" lon="2.03871">
        <ele>110.13</ele>
        <time>2013-04-07T12:41:51Z</time>
      </trkpt>
      <trkpt lat="49.50598" lon="2.0388">
        <ele>110.25</ele>
        <time>2013-04-07T12:42:07Z</time>
      </trkpt>
      <trkpt lat="49.50615" lon="2.03887">
        <ele>111.51</ele>
        <time>2013-04-07T12:42:22Z</time>
      </trkpt>
      <trkpt lat="49.50634" lon="2.03895">
        <ele>111.33</ele>
        <time>2013-04-07T12:42:37Z</time>
      </trkpt>
      <trkpt lat="49.50652" lon="2.03903">
        <ele>111.96</ele>
        <time>2013-04-07T12:42:52Z</time>
      </trkpt>
      <trkpt lat="49.50668" lon="2.03915">
        <ele>111.67</ele>
        <time>2013-04-07T12:43:08Z</time>
      </trkpt>
      <trkpt lat="49.50685" lon="2.03926">
        <ele>111.12</ele>
        <time>2013-04-07T12:43:24Z</time>
      </trkpt>
      <trkpt lat="49.50703" lon="2.03937">
        <ele>109.5</ele>
        <time>2013-04-07T12:43:41Z</time>
      </trkpt>
      <trkpt lat="49.5072" lon="2.03949">
        <ele>108.48</ele>
        <time>2013-04-07T12:43:59Z</time>
      </trkpt>
      <trkpt lat="49.50737" lon="2.03961">
        <ele>109.58</ele>
        <time>2013-04-07T12:44:16Z</time>
      </trkpt>
      <trkpt lat="49.50754" lon="2.03974">
        <ele>109.96</ele>
        <time>2013-04-07T12:44:32Z</time>
      </trkpt>
      <trkpt lat="49.50771" lon="2.03982">
        <ele>110.52</ele>
        <time>2013-04-07T12:44:47Z</time>
      </trkpt>
      <trkpt lat="49.50788" lon="2.03997">
        <ele>110.07</ele>
        <time>2013-04-07T12:45:03Z</time>
      </trkpt>
      <trkpt lat="49.50804" lon="2.04007">
        <ele>108.76</ele>
        <time>2013-04-07T12:45:19Z</time>
      </trkpt>
      <trkpt lat="49.50823" lon="2.04018">
        <ele>107.25</ele>
        <time>2013-04-07T12:45:35Z</time>
      </trkpt>
      <trkpt lat="49.50839" lon="2.0403">
        <ele>104.23</ele>
        <time>2013-04-07T12:45:51Z</time>
      </trkpt>
      <trkpt lat="49.50855" lon="2.04046">
        <ele>102.96</ele>
        <time>2013-04-07T12:46:05Z</time>
      </trkpt>
      <trkpt lat="49.50871" lon="2.04064">
        <ele>103.09</ele>
        <time>2013-04-07T12:46:23Z</time>
      </trkpt>
      <trkpt lat="49.50886" lon="2.04081">
        <ele>102.52</ele>
        <time>2013-04-07T12:46:38Z</time>
      </trkpt>
      <trkpt lat="49.50896" lon="2.04104">
        <ele>102.69</ele>
        <time>2013-04-07T12:46:53Z</time>
      </trkpt>
      <trkpt lat="49.50899" lon="2.04133">
        <ele>102.85</ele>
        <time>2013-04-07T12:47:09Z</time>
      </trkpt>
      <trkpt lat="49.50899" lon="2.0416">
        <ele>102.19</ele>
        <time>2013-04-07T12:47:29Z</time>
      </trkpt>
      <trkpt lat="49.50899" lon="2.04189">
        <ele>102.58</ele>
        <time>2013-04-07T12:47:43Z</time>
      </trkpt>
      <trkpt lat="49.50901" lon="2.04216">
        <ele>102.32</ele>
        <time>2013-04-07T12:47:56Z</time>
      </trkpt>
      <trkpt lat="49.50905" lon="2.04244">
        <ele>102.26</ele>
        <time>2013-04-07T12:48:09Z</time>
      </trkpt>
      <trkpt lat="49.5091" lon="2.04271">
        <ele>103.41</ele>
        <time>2013-04-07T12:48:21Z</time>
      </trkpt>
      <trkpt lat="49.50912" lon="2.043">
        <ele>105.73</ele>
        <time>2013-04-07T12:48:38Z</time>
      </trkpt>
      <trkpt lat="49.50918" lon="2.04328">
        <ele>106.27</ele>
        <time>2013-04-07T12:48:55Z</time>
      </trkpt>
      <trkpt lat="49.50919" lon="2.04356">
        <ele>107.92</ele>
        <time>2013-04-07T12:49:11Z</time>
      </trkpt>
      <trkpt lat="49.50922" lon="2.04385">
        <ele>109.96</ele>
        <time>2013-04-07T12:49:26Z</time>
      </trkpt>
      <trkpt lat="49.5092" lon="2.04413">
        <ele>112.56</ele>
        <time>2013-04-07T12:49:40Z</time>
      </trkpt>
      <trkpt lat="49.50925" lon="2.0444">
        <ele>113.77</ele>
        <time>2013-04-07T12:49:53Z</time>
      </trkpt>
      <trkpt lat="49.50927" lon="2.04468">
        <ele>115.08</ele>
        <time>2013-04-07T12:50:06Z</time>
      </trkpt>
      <trkpt lat="49.50929" lon="2.04495">
        <ele>117.88</ele>
        <time>2013-04-07T12:50:19Z</time>
      </trkpt>
      <trkpt lat="49.50931" lon="2.04523">
        <ele>122.01</ele>
        <time>2013-04-07T12:50:34Z</time>
      </trkpt>
      <trkpt lat="49.50934" lon="2.0455">
        <ele>123.6</ele>
        <time>2013-04-07T12:50:49Z</time>
      </trkpt>
      <trkpt lat="49.50932" lon="2.04578">
        <ele>123.97</ele>
        <time>2013-04-07T12:51:06Z</time>
      </trkpt>
      <trkpt lat="49.50933" lon="2.04608">
        <ele>123.6</ele>
        <time>2013-04-07T12:51:18Z</time>
      </trkpt>
      <trkpt lat="49.50935" lon="2.04637">
        <ele>122.24</ele>
        <time>2013-04-07T12:51:33Z</time>
      </trkpt>
      <trkpt lat="49.50932" lon="2.04664">
        <ele>115.94</ele>
        <time>2013-04-07T12:51:49Z</time>
      </trkpt>
      <trkpt lat="49.50929" lon="2.04692">
        <ele>115.14</ele>
        <time>2013-04-07T12:52:02Z</time>
      </trkpt>
      <trkpt lat="49.50927" lon="2.04719">
        <ele>117.37</ele>
        <time>2013-04-07T12:52:19Z</time>
      </trkpt>
      <trkpt lat="49.50935" lon="2.04745">
        <ele>118.27</ele>
        <time>2013-04-07T12:52:36Z</time>
      </trkpt>
      <trkpt lat="49.50952" lon="2.0476">
        <ele>118.95</ele>
        <time>2013-04-07T12:52:52Z</time>
      </trkpt>
      <trkpt lat="49.50967" lon="2.04777">
        <ele>119.68</ele>
        <time>2013-04-07T12:53:08Z</time>
      </trkpt>
      <trkpt lat="49.50984" lon="2.04794">
        <ele>121.12</ele>
        <time>2013-04-07T12:53:22Z</time>
      </trkpt>
      <trkpt lat="49.50993" lon="2.04819">
        <ele>120.25</ele>
        <time>2013-04-07T12:53:34Z</time>
      </trkpt>
      <trkpt lat="49.50992" lon="2.04848">
        <ele>119.48</ele>
        <time>2013-04-07T12:53:51Z</time>
      </trkpt>
      <trkpt lat="49.50982" lon="2.04873">
        <ele>119.01</ele>
        <time>2013-04-07T12:54:04Z</time>
      </trkpt>
      <trkpt lat="49.50977" lon="2.04899">
        <ele>119.16</ele>
        <time>2013-04-07T12:54:21Z</time>
      </trkpt>
      <trkpt lat="49.50974" lon="2.04929">
        <ele>120.19</ele>
        <time>2013-04-07T12:54:36Z</time>
      </trkpt>
      <trkpt lat="49.50967" lon="2.04955">
        <ele>120.7</ele>
        <time>2013-04-07T12:54:50Z</time>
      </trkpt>
      <trkpt lat="49.50964" lon="2.04983">
        <ele>121.91</ele>
        <time>2013-04-07T12:55:04Z</time>
      </trkpt>
      <trkpt lat="49.50963" lon="2.05011">
        <ele>123.23</ele>
        <time>2013-04-07T12:55:16Z</time>
      </trkpt>
      <trkpt lat="49.50957" lon="2.05039">
        <ele>123.86</ele>
        <time>2013-04-07T12:55:28Z</time>
      </trkpt>
      <trkpt lat="49.50961" lon="2.05067">
        <ele>127.4</ele>
        <time>2013-04-07T12:55:47Z</time>
      </trkpt>
      <trkpt lat="49.50965" lon="2.05094">
        <ele>131.3</ele>
        <time>2013-04-07T12:56:11Z</time>
      </trkpt>
      <trkpt lat="49.5096" lon="2.05121">
        <ele>132.62</ele>
        <time>2013-04-07T12:56:28Z</time>
      </trkpt>
      <trkpt lat="49.50962" lon="2.05148">
        <ele>133.5</ele>
        <time>2013-04-07T12:56:42Z</time>
      </trkpt>
      <trkpt lat="49.50963" lon="2.05177">
        <ele>134.62</ele>
        <time>2013-04-07T12:56:57Z</time>
      </trkpt>
      <trkpt lat="49.50971" lon="2.05203">
        <ele>135.49</ele>
        <time>2013-04-07T12:57:10Z</time>
      </trkpt>
      <trkpt lat="49.50975" lon="2.05232">
        <ele>135.89</ele>
        <time>2013-04-07T12:57:25Z</time>
      </trkpt>
      <trkpt lat="49.50978" lon="2.0526">
        <ele>136</ele>
        <time>2013-04-07T12:57:38Z</time>
      </trkpt>
      <trkpt lat="49.50986" lon="2.05285">
        <ele>136.02</ele>
        <time>2013-04-07T12:57:50Z</time>
      </trkpt>
      <trkpt lat="49.50984" lon="2.05313">
        <ele>134.92</ele>
        <time>2013-04-07T12:58:07Z</time>
      </trkpt>
      <trkpt lat="49.50985" lon="2.05342">
        <ele>135.35</ele>
        <time>2013-04-07T12:58:22Z</time>
      </trkpt>
      <trkpt lat="49.50988" lon="2.0537">
        <ele>135.56</ele>
        <time>2013-04-07T12:58:36Z</time>
      </trkpt>
      <trkpt lat="49.50987" lon="2.054">
        <ele>135.63</ele>
        <time>2013-04-07T12:58:52Z</time>
      </trkpt>
      <trkpt lat="49.5098" lon="2.05426">
        <ele>135.77</ele>
        <time>2013-04-07T12:59:07Z</time>
      </trkpt>
      <trkpt lat="49.50968" lon="2.05447">
        <ele>137.14</ele>
        <time>2013-04-07T12:59:25Z</time>
      </trkpt>
      <trkpt lat="49.50961" lon="2.05476">
        <ele>136.76</ele>
        <time>2013-04-07T12:59:43Z</time>
      </trkpt>
      <trkpt lat="49.50949" lon="2.05501">
        <ele>136.21</ele>
        <time>2013-04-07T13:00:02Z</time>
      </trkpt>
      <trkpt lat="49.50937" lon="2.05521">
        <ele>135.12</ele>
        <time>2013-04-07T13:00:19Z</time>
      </trkpt>
      <trkpt lat="49.50926" lon="2.05547">
        <ele>134.25</ele>
        <time>2013-04-07T13:00:34Z</time>
      </trkpt>
      <trkpt lat="49.5092" lon="2.05573">
        <ele>133.67</ele>
        <time>2013-04-07T13:00:47Z</time>
      </trkpt>
      <trkpt lat="49.50914" lon="2.056">
        <ele>134.92</ele>
        <time>2013-04-07T13:01:00Z</time>
      </trkpt>
      <trkpt lat="49.50907" lon="2.05626">
        <ele>134.68</ele>
        <time>2013-04-07T13:01:16Z</time>
      </trkpt>
      <trkpt lat="49.50897" lon="2.05649">
        <ele>133.63</ele>
        <time>2013-04-07T13:01:32Z</time>
      </trkpt>
      <trkpt lat="49.50888" lon="2.05674">
        <ele>131.18</ele>
        <time>2013-04-07T13:01:47Z</time>
      </trkpt>
      <trkpt lat="49.50883" lon="2.05701">
        <ele>129.65</ele>
        <time>2013-04-07T13:02:03Z</time>
      </trkpt>
      <trkpt lat="49.50875" lon="2.05727">
        <ele>128.73</ele>
        <time>2013-04-07T13:02:16Z</time>
      </trkpt>
      <trkpt lat="49.50869" lon="2.05754">
        <ele>127.6</ele>
        <time>2013-04-07T13:02:35Z</time>
      </trkpt>
      <trkpt lat="49.50867" lon="2.05784">
        <ele>126.31</ele>
        <time>2013-04-07T13:02:49Z</time>
      </trkpt>
      <trkpt lat="49.50872" lon="2.05811">
        <ele>125.31</ele>
        <time>2013-04-07T13:03:00Z</time>
      </trkpt>
      <trkpt lat="49.50873" lon="2.0584">
        <ele>124.87</ele>
        <time>2013-04-07T13:03:08Z</time>
      </trkpt>
      <trkpt lat="49.50875" lon="2.05869">
        <ele>117.67</ele>
        <time>2013-04-07T13:03:23Z</time>
      </trkpt>
      <trkpt lat="49.50865" lon="2.05892">
        <ele>108.02</ele>
        <time>2013-04-07T13:03:38Z</time>
      </trkpt>
      <trkpt lat="49.50854" lon="2.05915">
        <ele>104.83</ele>
        <time>2013-04-07T13:03:52Z</time>
      </trkpt>
      <trkpt lat="49.50843" lon="2.05936">
        <ele>104.46</ele>
        <time>2013-04-07T13:04:06Z</time>
      </trkpt>
      <trkpt lat="49.50827" lon="2.05955">
        <ele>103.87</ele>
        <time>2013-04-07T13:04:22Z</time>
      </trkpt>
      <trkpt lat="49.50813" lon="2.05973">
        <ele>103.4</ele>
        <time>2013-04-07T13:04:34Z</time>
      </trkpt>
      <trkpt lat="49.50797" lon="2.0599">
        <ele>100.98</ele>
        <time>2013-04-07T13:04:53Z</time>
      </trkpt>
      <trkpt lat="49.50779" lon="2.05992">
        <ele>100.81</ele>
        <time>2013-04-07T13:05:08Z</time>
      </trkpt>
      <trkpt lat="49.5076" lon="2.05989">
        <ele>100.72</ele>
        <time>2013-04-07T13:05:23Z</time>
      </trkpt>
      <trkpt lat="49.50741" lon="2.05988">
        <ele>99.45</ele>
        <time>2013-04-07T13:05:40Z</time>
      </trkpt>
      <trkpt lat="49.50723" lon="2.05993">
        <ele>99.41</ele>
        <time>2013-04-07T13:05:56Z</time>
      </trkpt>
      <trkpt lat="49.50704" lon="2.05991">
        <ele>97.8</ele>
        <time>2013-04-07T13:06:11Z</time>
      </trkpt>
      <trkpt lat="49.50686" lon="2.05988">
        <ele>98.05</ele>
        <time>2013-04-07T13:06:26Z</time>
      </trkpt>
      <trkpt lat="49.50668" lon="2.05983">
        <ele>95.41</ele>
        <time>2013-04-07T13:06:40Z</time>
      </trkpt>
      <trkpt lat="49.50649" lon="2.05976">
        <ele>94.32</ele>
        <time>2013-04-07T13:06:54Z</time>
      </trkpt>
      <trkpt lat="49.5063" lon="2.05979">
        <ele>96.33</ele>
        <time>2013-04-07T13:07:08Z</time>
      </trkpt>
      <trkpt lat="49.50612" lon="2.05983">
        <ele>98.09</ele>
        <time>2013-04-07T13:07:24Z</time>
      </trkpt>
      <trkpt lat="49.50594" lon="2.05985">
        <ele>98.33</ele>
        <time>2013-04-07T13:07:38Z</time>
      </trkpt>
      <trkpt lat="49.50575" lon="2.05989">
        <ele>96.07</ele>
        <time>2013-04-07T13:08:01Z</time>
      </trkpt>
      <trkpt lat="49.50556" lon="2.05996">
        <ele>96.24</ele>
        <time>2013-04-07T13:08:15Z</time>
      </trkpt>
      <trkpt lat="49.50537" lon="2.06001">
        <ele>97.07</ele>
        <time>2013-04-07T13:08:27Z</time>
      </trkpt>
      <trkpt lat="49.50519" lon="2.06006">
        <ele>98.45</ele>
        <time>2013-04-07T13:08:41Z</time>
      </trkpt>
      <trkpt lat="49.50501" lon="2.06004">
        <ele>97.88</ele>
        <time>2013-04-07T13:08:56Z</time>
      </trkpt>
      <trkpt lat="49.50483" lon="2.06003">
        <ele>96.53</ele>
        <time>2013-04-07T13:09:08Z</time>
      </trkpt>
      <trkpt lat="49.50464" lon="2.05999">
        <ele>96.29</ele>
        <time>2013-04-07T13:09:22Z</time>
      </trkpt>
      <trkpt lat="49.50446" lon="2.06004">
        <ele>96</ele>
        <time>2013-04-07T13:09:35Z</time>
      </trkpt>
      <trkpt lat="49.50428" lon="2.06006">
        <ele>95.2</ele>
        <time>2013-04-07T13:09:50Z</time>
      </trkpt>
      <trkpt lat="49.5041" lon="2.06011">
        <ele>92.84</ele>
        <time>2013-04-07T13:10:06Z</time>
      </trkpt>
      <trkpt lat="49.50391" lon="2.0601">
        <ele>92.41</ele>
        <time>2013-04-07T13:10:21Z</time>
      </trkpt>
      <trkpt lat="49.50372" lon="2.06007">
        <ele>94.6</ele>
        <time>2013-04-07T13:10:35Z</time>
      </trkpt>
      <trkpt lat="49.50354" lon="2.06002">
        <ele>95.57</ele>
        <time>2013-04-07T13:10:50Z</time>
      </trkpt>
      <trkpt lat="49.50335" lon="2.06007">
        <ele>94.88</ele>
        <time>2013-04-07T13:11:12Z</time>
      </trkpt>
      <trkpt lat="49.50318" lon="2.06013">
        <ele>93.18</ele>
        <time>2013-04-07T13:11:25Z</time>
      </trkpt>
      <trkpt lat="49.50299" lon="2.06011">
        <ele>89.98</ele>
        <time>2013-04-07T13:11:40Z</time>
      </trkpt>
      <trkpt lat="49.5028" lon="2.06011">
        <ele>86.49</ele>
        <time>2013-04-07T13:11:57Z</time>
      </trkpt>
      <trkpt lat="49.50262" lon="2.06014">
        <ele>88.15</ele>
        <time>2013-04-07T13:12:10Z</time>
      </trkpt>
      <trkpt lat="49.50243" lon="2.0601">
        <ele>88.25</ele>
        <time>2013-04-07T13:12:25Z</time>
      </trkpt>
      <trkpt lat="49.50225" lon="2.06019">
        <ele>87.24</ele>
        <time>2013-04-07T13:12:39Z</time>
      </trkpt>
      <trkpt lat="49.50207" lon="2.06015">
        <ele>86.34</ele>
        <time>2013-04-07T13:12:56Z</time>
      </trkpt>
      <trkpt lat="49.50188" lon="2.0602">
        <ele>88.89</ele>
        <time>2013-04-07T13:13:16Z</time>
      </trkpt>
      <trkpt lat="49.5017" lon="2.06012">
        <ele>89.17</ele>
        <time>2013-04-07T13:13:33Z</time>
      </trkpt>
      <trkpt lat="49.50151" lon="2.06015">
        <ele>90.2</ele>
        <time>2013-04-07T13:13:49Z</time>
      </trkpt>
      <trkpt lat="49.50132" lon="2.06017">
        <ele>89.78</ele>
        <time>2013-04-07T13:14:02Z</time>
      </trkpt>
      <trkpt lat="49.50114" lon="2.06016">
        <ele>88.19</ele>
        <time>2013-04-07T13:14:15Z</time>
      </trkpt>
      <trkpt lat="49.50096" lon="2.06023">
        <ele>87.28</ele>
        <time>2013-04-07T13:14:31Z</time>
      </trkpt>
      <trkpt lat="49.50078" lon="2.06021">
        <ele>88.77</ele>
        <time>2013-04-07T13:14:45Z</time>
      </trkpt>
      <trkpt lat="49.5006" lon="2.06022">
        <ele>89.25</ele>
        <time>2013-04-07T13:15:01Z</time>
      </trkpt>
      <trkpt lat="49.50042" lon="2.06026">
        <ele>88.94</ele>
        <time>2013-04-07T13:15:16Z</time>
      </trkpt>
      <trkpt lat="49.50023" lon="2.06019">
        <ele>86.42</ele>
        <time>2013-04-07T13:15:30Z</time>
      </trkpt>
      <trkpt lat="49.50005" lon="2.06016">
        <ele>84.07</ele>
        <time>2013-04-07T13:15:46Z</time>
      </trkpt>
      <trkpt lat="49.49986" lon="2.06009">
        <ele>82.95</ele>
        <time>2013-04-07T13:15:58Z</time>
      </trkpt>
      <trkpt lat="49.49968" lon="2.06013">
        <ele>79.55</ele>
        <time>2013-04-07T13:16:09Z</time>
      </trkpt>
      <trkpt lat="49.4995" lon="2.06011">
        <ele>75.97</ele>
        <time>2013-04-07T13:16:26Z</time>
      </trkpt>
      <trkpt lat="49.49931" lon="2.06007">
        <ele>73.88</ele>
        <time>2013-04-07T13:16:39Z</time>
      </trkpt>
      <trkpt lat="49.49912" lon="2.06006">
        <ele>74.47</ele>
        <time>2013-04-07T13:16:54Z</time>
      </trkpt>
      <trkpt lat="49.49894" lon="2.06">
        <ele>73.15</ele>
        <time>2013-04-07T13:17:10Z</time>
      </trkpt>
      <trkpt lat="49.49875" lon="2.05997">
        <ele>73.5</ele>
        <time>2013-04-07T13:17:25Z</time>
      </trkpt>
      <trkpt lat="49.49857" lon="2.05993">
        <ele>73.55</ele>
        <time>2013-04-07T13:17:37Z</time>
      </trkpt>
      <trkpt lat="49.49838" lon="2.05994">
        <ele>73.29</ele>
        <time>2013-04-07T13:17:53Z</time>
      </trkpt>
      <trkpt lat="49.4982" lon="2.05988">
        <ele>73.93</ele>
        <time>2013-04-07T13:18:09Z</time>
      </trkpt>
      <trkpt lat="49.49802" lon="2.05987">
        <ele>73.75</ele>
        <time>2013-04-07T13:18:25Z</time>
      </trkpt>
      <trkpt lat="49.49784" lon="2.05987">
        <ele>73.48</ele>
        <time>2013-04-07T13:18:39Z</time>
      </trkpt>
      <trkpt lat="49.49765" lon="2.0598">
        <ele>73.48</ele>
        <time>2013-04-07T13:18:53Z</time>
      </trkpt>
      <trkpt lat="49.49746" lon="2.05979">
        <ele>73.49</ele>
        <time>2013-04-07T13:19:03Z</time>
      </trkpt>
      <trkpt lat="49.49729" lon="2.0597">
        <ele>76.13</ele>
        <time>2013-04-07T13:19:24Z</time>
      </trkpt>
      <trkpt lat="49.4971" lon="2.05963">
        <ele>77.52</ele>
        <time>2013-04-07T13:19:36Z</time>
      </trkpt>
      <trkpt lat="49.49692" lon="2.05958">
        <ele>90.78</ele>
        <time>2013-04-07T13:20:33Z</time>
      </trkpt>
      <trkpt lat="49.49677" lon="2.05944">
        <ele>91.53</ele>
        <time>2013-04-07T13:20:43Z</time>
      </trkpt>
      <trkpt lat="49.4966" lon="2.05934">
        <ele>91.66</ele>
        <time>2013-04-07T13:20:57Z</time>
      </trkpt>
      <trkpt lat="49.49643" lon="2.05923">
        <ele>91.58</ele>
        <time>2013-04-07T13:21:10Z</time>
      </trkpt>
      <trkpt lat="49.49626" lon="2.05911">
        <ele>91.96</ele>
        <time>2013-04-07T13:21:29Z</time>
      </trkpt>
      <trkpt lat="49.4961" lon="2.05897">
        <ele>93.26</ele>
        <time>2013-04-07T13:21:45Z</time>
      </trkpt>
      <trkpt lat="49.49592" lon="2.05887">
        <ele>93.87</ele>
        <time>2013-04-07T13:21:57Z</time>
      </trkpt>
      <trkpt lat="49.49575" lon="2.05876">
        <ele>94.08</ele>
        <time>2013-04-07T13:22:10Z</time>
      </trkpt>
      <trkpt lat="49.49557" lon="2.05863">
        <ele>94.37</ele>
        <time>2013-04-07T13:22:26Z</time>
      </trkpt>
      <trkpt lat="49.49541" lon="2.0585">
        <ele>94.71</ele>
        <time>2013-04-07T13:22:40Z</time>
      </trkpt>
      <trkpt lat="49.49525" lon="2.05835">
        <ele>94.59</ele>
        <time>2013-04-07T13:22:54Z</time>
      </trkpt>
      <trkpt lat="49.49507" lon="2.05827">
        <ele>94.89</ele>
        <time>2013-04-07T13:23:11Z</time>
      </trkpt>
      <trkpt lat="49.4949" lon="2.05817">
        <ele>94.44</ele>
        <time>2013-04-07T13:23:25Z</time>
      </trkpt>
      <trkpt lat="49.49473" lon="2.05805">
        <ele>94.04</ele>
        <time>2013-04-07T13:23:42Z</time>
      </trkpt>
      <trkpt lat="49.49456" lon="2.05794">
        <ele>93.06</ele>
        <time>2013-04-07T13:24:01Z</time>
      </trkpt>
      <trkpt lat="49.49438" lon="2.05793">
        <ele>92.82</ele>
        <time>2013-04-07T13:24:11Z</time>
      </trkpt>
      <trkpt lat="49.4942" lon="2.0579">
        <ele>91.66</ele>
        <time>2013-04-07T13:24:30Z</time>
      </trkpt>
      <trkpt lat="49.49402" lon="2.05781">
        <ele>91.39</ele>
        <time>2013-04-07T13:24:42Z</time>
      </trkpt>
      <trkpt lat="49.49383" lon="2.05784">
        <ele>91.24</ele>
        <time>2013-04-07T13:25:03Z</time>
      </trkpt>
      <trkpt lat="49.49365" lon="2.05784">
        <ele>90.97</ele>
        <time>2013-04-07T13:25:14Z</time>
      </trkpt>
      <trkpt lat="49.49346" lon="2.05791">
        <ele>90.04</ele>
        <time>2013-04-07T13:25:29Z</time>
      </trkpt>
      <trkpt lat="49.49328" lon="2.05795">
        <ele>89.69</ele>
        <time>2013-04-07T13:25:38Z</time>
      </trkpt>
      <trkpt lat="49.49311" lon="2.05806">
        <ele>89.42</ele>
        <time>2013-04-07T13:25:53Z</time>
      </trkpt>
      <trkpt lat="49.49294" lon="2.0582">
        <ele>89.33</ele>
        <time>2013-04-07T13:26:13Z</time>
      </trkpt>
      <trkpt lat="49.49277" lon="2.0583">
        <ele>88.77</ele>
        <time>2013-04-07T13:26:28Z</time>
      </trkpt>
      <trkpt lat="49.4926" lon="2.05844">
        <ele>88.44</ele>
        <time>2013-04-07T13:26:39Z</time>
      </trkpt>
      <trkpt lat="49.49244" lon="2.0586">
        <ele>86.85</ele>
        <time>2013-04-07T13:26:52Z</time>
      </trkpt>
      <trkpt lat="49.49225" lon="2.05859">
        <ele>83.58</ele>
        <time>2013-04-07T13:27:12Z</time>
      </trkpt>
      <trkpt lat="49.49207" lon="2.05863">
        <ele>82.45</ele>
        <time>2013-04-07T13:27:26Z</time>
      </trkpt>
      <trkpt lat="49.49188" lon="2.05865">
        <ele>81.55</ele>
        <time>2013-04-07T13:27:41Z</time>
      </trkpt>
      <trkpt lat="49.4917" lon="2.05868">
        <ele>80.06</ele>
        <time>2013-04-07T13:27:58Z</time>
      </trkpt>
      <trkpt lat="49.49153" lon="2.05874">
        <ele>79.14</ele>
        <time>2013-04-07T13:28:10Z</time>
      </trkpt>
      <trkpt lat="49.49135" lon="2.05878">
        <ele>78.67</ele>
        <time>2013-04-07T13:28:23Z</time>
      </trkpt>
      <trkpt lat="49.49117" lon="2.05886">
        <ele>77.97</ele>
        <time>2013-04-07T13:28:38Z</time>
      </trkpt>
      <trkpt lat="49.49098" lon="2.05897">
        <ele>77.71</ele>
        <time>2013-04-07T13:28:55Z</time>
      </trkpt>
      <trkpt lat="49.49081" lon="2.05912">
        <ele>78.22</ele>
        <time>2013-04-07T13:29:10Z</time>
      </trkpt>
      <trkpt lat="49.49062" lon="2.05915">
        <ele>79.83</ele>
        <time>2013-04-07T13:29:21Z</time>
      </trkpt>
      <trkpt lat="49.49043" lon="2.05915">
        <ele>79.46</ele>
        <time>2013-04-07T13:29:35Z</time>
      </trkpt>
      <trkpt lat="49.49025" lon="2.05919">
        <ele>78.33</ele>
        <time>2013-04-07T13:29:51Z</time>
      </trkpt>
      <trkpt lat="49.49008" lon="2.05929">
        <ele>77.57</ele>
        <time>2013-04-07T13:30:06Z</time>
      </trkpt>
      <trkpt lat="49.4899" lon="2.05932">
        <ele>76.41</ele>
        <time>2013-04-07T13:30:25Z</time>
      </trkpt>
      <trkpt lat="49.48972" lon="2.05944">
        <ele>75.77</ele>
        <time>2013-04-07T13:30:38Z</time>
      </trkpt>
      <trkpt lat="49.48957" lon="2.05963">
        <ele>75.25</ele>
        <time>2013-04-07T13:30:55Z</time>
      </trkpt>
      <trkpt lat="49.48941" lon="2.05978">
        <ele>75.29</ele>
        <time>2013-04-07T13:31:07Z</time>
      </trkpt>
      <trkpt lat="49.48927" lon="2.05996">
        <ele>75.87</ele>
        <time>2013-04-07T13:31:18Z</time>
      </trkpt>
      <trkpt lat="49.48911" lon="2.06013">
        <ele>78.49</ele>
        <time>2013-04-07T13:31:40Z</time>
      </trkpt>
      <trkpt lat="49.48898" lon="2.06033">
        <ele>79.51</ele>
        <time>2013-04-07T13:32:00Z</time>
      </trkpt>
      <trkpt lat="49.48883" lon="2.06047">
        <ele>80.06</ele>
        <time>2013-04-07T13:32:17Z</time>
      </trkpt>
      <trkpt lat="49.48867" lon="2.06062">
        <ele>80.05</ele>
        <time>2013-04-07T13:32:31Z</time>
      </trkpt>
      <trkpt lat="49.48853" lon="2.06082">
        <ele>79.46</ele>
        <time>2013-04-07T13:32:45Z</time>
      </trkpt>
      <trkpt lat="49.48839" lon="2.061">
        <ele>78.39</ele>
        <time>2013-04-07T13:32:59Z</time>
      </trkpt>
      <trkpt lat="49.48828" lon="2.06123">
        <ele>78.09</ele>
        <time>2013-04-07T13:33:12Z</time>
      </trkpt>
      <trkpt lat="49.48819" lon="2.06149">
        <ele>78.86</ele>
        <time>2013-04-07T13:33:25Z</time>
      </trkpt>
      <trkpt lat="49.48809" lon="2.06174">
        <ele>79.24</ele>
        <time>2013-04-07T13:33:55Z</time>
      </trkpt>
      <trkpt lat="49.48797" lon="2.06196">
        <ele>79.23</ele>
        <time>2013-04-07T13:34:09Z</time>
      </trkpt>
      <trkpt lat="49.48788" lon="2.06219">
        <ele>78.72</ele>
        <time>2013-04-07T13:34:24Z</time>
      </trkpt>
      <trkpt lat="49.48781" lon="2.06248">
        <ele>78.56</ele>
        <time>2013-04-07T13:34:37Z</time>
      </trkpt>
      <trkpt lat="49.48775" lon="2.06274">
        <ele>78.1</ele>
        <time>2013-04-07T13:34:52Z</time>
      </trkpt>
      <trkpt lat="49.48763" lon="2.06295">
        <ele>77.69</ele>
        <time>2013-04-07T13:35:05Z</time>
      </trkpt>
      <trkpt lat="49.4875" lon="2.06316">
        <ele>78.11</ele>
        <time>2013-04-07T13:35:18Z</time>
      </trkpt>
      <trkpt lat="49.48733" lon="2.06328">
        <ele>79.9</ele>
        <time>2013-04-07T13:35:33Z</time>
      </trkpt>
      <trkpt lat="49.48714" lon="2.06339">
        <ele>79.84</ele>
        <time>2013-04-07T13:35:45Z</time>
      </trkpt>
      <trkpt lat="49.487" lon="2.06358">
        <ele>78.71</ele>
        <time>2013-04-07T13:36:01Z</time>
      </trkpt>
      <trkpt lat="49.48683" lon="2.06369">
        <ele>78.51</ele>
        <time>2013-04-07T13:36:19Z</time>
      </trkpt>
      <trkpt lat="49.48664" lon="2.06375">
        <ele>77.56</ele>
        <time>2013-04-07T13:36:34Z</time>
      </trkpt>
      <trkpt lat="49.48645" lon="2.06376">
        <ele>77.21</ele>
        <time>2013-04-07T13:36:43Z</time>
      </trkpt>
      <trkpt lat="49.48629" lon="2.06388">
        <ele>76.57</ele>
        <time>2013-04-07T13:36:58Z</time>
      </trkpt>
      <trkpt lat="49.4861" lon="2.06392">
        <ele>76.48</ele>
        <time>2013-04-07T13:37:15Z</time>
      </trkpt>
      <trkpt lat="49.48592" lon="2.06398">
        <ele>76.17</ele>
        <time>2013-04-07T13:37:32Z</time>
      </trkpt>
      <trkpt lat="49.48573" lon="2.06403">
        <ele>75.26</ele>
        <time>2013-04-07T13:37:46Z</time>
      </trkpt>
      <trkpt lat="49.48553" lon="2.0641">
        <ele>75.24</ele>
        <time>2013-04-07T13:38:03Z</time>
      </trkpt>
      <trkpt lat="49.48535" lon="2.06411">
        <ele>75.59</ele>
        <time>2013-04-07T13:38:13Z</time>
      </trkpt>
      <trkpt lat="49.48517" lon="2.06415">
        <ele>75.52</ele>
        <time>2013-04-07T13:38:26Z</time>
      </trkpt>
      <trkpt lat="49.48498" lon="2.06419">
        <ele>75.74</ele>
        <time>2013-04-07T13:38:41Z</time>
      </trkpt>
      <trkpt lat="49.48479" lon="2.06421">
        <ele>75.81</ele>
        <time>2013-04-07T13:38:59Z</time>
      </trkpt>
      <trkpt lat="49.4848" lon="2.06394">
        <ele>75.61</ele>
        <time>2013-04-07T13:39:49Z</time>
      </trkpt>
      <trkpt lat="49.48473" lon="2.06368">
        <ele>72.65</ele>
        <time>2013-04-07T13:40:03Z</time>
      </trkpt>
      <trkpt lat="49.48469" lon="2.06338">
        <ele>70.39</ele>
        <time>2013-04-07T13:40:16Z</time>
      </trkpt>
      <trkpt lat="49.48463" lon="2.06312">
        <ele>67.89</ele>
        <time>2013-04-07T13:40:31Z</time>
      </trkpt>
      <trkpt lat="49.48452" lon="2.06288">
        <ele>68.48</ele>
        <time>2013-04-07T13:40:43Z</time>
      </trkpt>
      <trkpt lat="49.48443" lon="2.06263">
        <ele>68</ele>
        <time>2013-04-07T13:40:53Z</time>
      </trkpt>
      <trkpt lat="49.48436" lon="2.06237">
        <ele>69.08</ele>
        <time>2013-04-07T13:41:06Z</time>
      </trkpt>
      <trkpt lat="49.48428" lon="2.0621">
        <ele>71.05</ele>
        <time>2013-04-07T13:41:20Z</time>
      </trkpt>
      <trkpt lat="49.48422" lon="2.06183">
        <ele>72.33</ele>
        <time>2013-04-07T13:41:34Z</time>
      </trkpt>
      <trkpt lat="49.48414" lon="2.06158">
        <ele>71.73</ele>
        <time>2013-04-07T13:41:50Z</time>
      </trkpt>
      <trkpt lat="49.48408" lon="2.06129">
        <ele>71.56</ele>
        <time>2013-04-07T13:42:06Z</time>
      </trkpt>
      <trkpt lat="49.484" lon="2.06102">
        <ele>71.63</ele>
        <time>2013-04-07T13:42:19Z</time>
      </trkpt>
      <trkpt lat="49.48391" lon="2.06077">
        <ele>71.41</ele>
        <time>2013-04-07T13:42:33Z</time>
      </trkpt>
      <trkpt lat="49.48383" lon="2.06051">
        <ele>70.05</ele>
        <time>2013-04-07T13:42:48Z</time>
      </trkpt>
      <trkpt lat="49.48373" lon="2.06027">
        <ele>70.81</ele>
        <time>2013-04-07T13:42:59Z</time>
      </trkpt>
      <trkpt lat="49.48366" lon="2.06001">
        <ele>70.48</ele>
        <time>2013-04-07T13:43:12Z</time>
      </trkpt>
      <trkpt lat="49.48359" lon="2.05974">
        <ele>71.51</ele>
        <time>2013-04-07T13:43:26Z</time>
      </trkpt>
      <trkpt lat="49.48352" lon="2.05948">
        <ele>71.17</ele>
        <time>2013-04-07T13:43:40Z</time>
      </trkpt>
      <trkpt lat="49.48343" lon="2.05923">
        <ele>73.22</ele>
        <time>2013-04-07T13:43:58Z</time>
      </trkpt>
      <trkpt lat="49.48336" lon="2.05898">
        <ele>74.63</ele>
        <time>2013-04-07T13:44:12Z</time>
      </trkpt>
      <trkpt lat="49.48333" lon="2.0587">
        <ele>75.08</ele>
        <time>2013-04-07T13:44:26Z</time>
      </trkpt>
      <trkpt lat="49.48332" lon="2.05841">
        <ele>74.58</ele>
        <time>2013-04-07T13:44:43Z</time>
      </trkpt>
      <trkpt lat="49.48331" lon="2.05813">
        <ele>75.78</ele>
        <time>2013-04-07T13:44:57Z</time>
      </trkpt>
      <trkpt lat="49.48329" lon="2.05785">
        <ele>77.22</ele>
        <time>2013-04-07T13:45:10Z</time>
      </trkpt>
      <trkpt lat="49.48328" lon="2.05757">
        <ele>76.17</ele>
        <time>2013-04-07T13:45:26Z</time>
      </trkpt>
      <trkpt lat="49.48328" lon="2.05728">
        <ele>76.84</ele>
        <time>2013-04-07T13:45:40Z</time>
      </trkpt>
      <trkpt lat="49.48327" lon="2.057">
        <ele>76.68</ele>
        <time>2013-04-07T13:45:55Z</time>
      </trkpt>
      <trkpt lat="49.48327" lon="2.05672">
        <ele>76.7</ele>
        <time>2013-04-07T13:46:12Z</time>
      </trkpt>
      <trkpt lat="49.48324" lon="2.05643">
        <ele>79.23</ele>
        <time>2013-04-07T13:46:27Z</time>
      </trkpt>
      <trkpt lat="49.48327" lon="2.05613">
        <ele>79.25</ele>
        <time>2013-04-07T13:46:41Z</time>
      </trkpt>
      <trkpt lat="49.48325" lon="2.05584">
        <ele>78.06</ele>
        <time>2013-04-07T13:46:56Z</time>
      </trkpt>
      <trkpt lat="49.48325" lon="2.05555">
        <ele>75.82</ele>
        <time>2013-04-07T13:47:12Z</time>
      </trkpt>
      <trkpt lat="49.48323" lon="2.05526">
        <ele>76.38</ele>
        <time>2013-04-07T13:47:30Z</time>
      </trkpt>
      <trkpt lat="49.48322" lon="2.05499">
        <ele>78.98</ele>
        <time>2013-04-07T13:47:45Z</time>
      </trkpt>
      <trkpt lat="49.48318" lon="2.0547">
        <ele>80.1</ele>
        <time>2013-04-07T13:48:02Z</time>
      </trkpt>
      <trkpt lat="49.4831" lon="2.05444">
        <ele>81.37</ele>
        <time>2013-04-07T13:48:14Z</time>
      </trkpt>
      <trkpt lat="49.48301" lon="2.05419">
        <ele>82.56</ele>
        <time>2013-04-07T13:48:30Z</time>
      </trkpt>
      <trkpt lat="49.48292" lon="2.05393">
        <ele>83.61</ele>
        <time>2013-04-07T13:48:44Z</time>
      </trkpt>
      <trkpt lat="49.48283" lon="2.05369">
        <ele>83.19</ele>
        <time>2013-04-07T13:49:01Z</time>
      </trkpt>
      <trkpt lat="49.48272" lon="2.05346">
        <ele>82.2</ele>
        <time>2013-04-07T13:49:15Z</time>
      </trkpt>
      <trkpt lat="49.48259" lon="2.05326">
        <ele>82.44</ele>
        <time>2013-04-07T13:49:33Z</time>
      </trkpt>
      <trkpt lat="49.48252" lon="2.05299">
        <ele>82.66</ele>
        <time>2013-04-07T13:49:48Z</time>
      </trkpt>
      <trkpt lat="49.48243" lon="2.05275">
        <ele>84.55</ele>
        <time>2013-04-07T13:50:04Z</time>
      </trkpt>
      <trkpt lat="49.48234" lon="2.05248">
        <ele>84.46</ele>
        <time>2013-04-07T13:50:21Z</time>
      </trkpt>
      <trkpt lat="49.48225" lon="2.05224">
        <ele>84.71</ele>
        <time>2013-04-07T13:50:35Z</time>
      </trkpt>
      <trkpt lat="49.48216" lon="2.05198">
        <ele>85.57</ele>
        <time>2013-04-07T13:50:49Z</time>
      </trkpt>
      <trkpt lat="49.48209" lon="2.05173">
        <ele>85.42</ele>
        <time>2013-04-07T13:51:05Z</time>
      </trkpt>
      <trkpt lat="49.48196" lon="2.05154">
        <ele>85.15</ele>
        <time>2013-04-07T13:51:22Z</time>
      </trkpt>
      <trkpt lat="49.48188" lon="2.05129">
        <ele>85.8</ele>
        <time>2013-04-07T13:51:37Z</time>
      </trkpt>
      <trkpt lat="49.48183" lon="2.05101">
        <ele>85.36</ele>
        <time>2013-04-07T13:51:53Z</time>
      </trkpt>
      <trkpt lat="49.4818" lon="2.05072">
        <ele>83.64</ele>
        <time>2013-04-07T13:52:10Z</time>
      </trkpt>
      <trkpt lat="49.4817" lon="2.05048">
        <ele>81.85</ele>
        <time>2013-04-07T13:52:23Z</time>
      </trkpt>
      <trkpt lat="49.48165" lon="2.05021">
        <ele>82.29</ele>
        <time>2013-04-07T13:52:41Z</time>
      </trkpt>
      <trkpt lat="49.48159" lon="2.04995">
        <ele>82.79</ele>
        <time>2013-04-07T13:52:55Z</time>
      </trkpt>
      <trkpt lat="49.48154" lon="2.04967">
        <ele>81.95</ele>
        <time>2013-04-07T13:53:11Z</time>
      </trkpt>
      <trkpt lat="49.48148" lon="2.0494">
        <ele>81.29</ele>
        <time>2013-04-07T13:53:27Z</time>
      </trkpt>
      <trkpt lat="49.48143" lon="2.04913">
        <ele>81.88</ele>
        <time>2013-04-07T13:53:46Z</time>
      </trkpt>
      <trkpt lat="49.48139" lon="2.04886">
        <ele>81.07</ele>
        <time>2013-04-07T13:54:03Z</time>
      </trkpt>
      <trkpt lat="49.4814" lon="2.04858">
        <ele>80.35</ele>
        <time>2013-04-07T13:54:21Z</time>
      </trkpt>
      <trkpt lat="49.48141" lon="2.0483">
        <ele>79.39</ele>
        <time>2013-04-07T13:54:37Z</time>
      </trkpt>
      <trkpt lat="49.4814" lon="2.04802">
        <ele>79.56</ele>
        <time>2013-04-07T13:54:53Z</time>
      </trkpt>
      <trkpt lat="49.48142" lon="2.04774">
        <ele>78.13</ele>
        <time>2013-04-07T13:55:12Z</time>
      </trkpt>
      <trkpt lat="49.4814" lon="2.04745">
        <ele>77.83</ele>
        <time>2013-04-07T13:55:30Z</time>
      </trkpt>
      <trkpt lat="49.48129" lon="2.04721">
        <ele>77.71</ele>
        <time>2013-04-07T13:55:46Z</time>
      </trkpt>
      <trkpt lat="49.48129" lon="2.04686">
        <ele>77.55</ele>
        <time>2013-04-07T13:56:02Z</time>
      </trkpt>
      <trkpt lat="49.48121" lon="2.0466">
        <ele>76.53</ele>
        <time>2013-04-07T13:56:18Z</time>
      </trkpt>
      <trkpt lat="49.4811" lon="2.04637">
        <ele>74.92</ele>
        <time>2013-04-07T13:56:34Z</time>
      </trkpt>
      <trkpt lat="49.48097" lon="2.04614">
        <ele>74.33</ele>
        <time>2013-04-07T13:56:50Z</time>
      </trkpt>
      <trkpt lat="49.48086" lon="2.04591">
        <ele>73.67</ele>
        <time>2013-04-07T13:57:10Z</time>
      </trkpt>
      <trkpt lat="49.48069" lon="2.04577">
        <ele>74.63</ele>
        <time>2013-04-07T13:57:26Z</time>
      </trkpt>
      <trkpt lat="49.48058" lon="2.04555">
        <ele>75.14</ele>
        <time>2013-04-07T13:57:41Z</time>
      </trkpt>
      <trkpt lat="49.48048" lon="2.04532">
        <ele>74.49</ele>
        <time>2013-04-07T13:57:59Z</time>
      </trkpt>
      <trkpt lat="49.48035" lon="2.04512">
        <ele>73.31</ele>
        <time>2013-04-07T13:58:15Z</time>
      </trkpt>
      <trkpt lat="49.48018" lon="2.045">
        <ele>74.03</ele>
        <time>2013-04-07T13:58:30Z</time>
      </trkpt>
      <trkpt lat="49.47999" lon="2.04496">
        <ele>74.1</ele>
        <time>2013-04-07T13:58:44Z</time>
      </trkpt>
      <trkpt lat="49.47982" lon="2.04505">
        <ele>71.83</ele>
        <time>2013-04-07T13:59:09Z</time>
      </trkpt>
      <trkpt lat="49.47964" lon="2.04512">
        <ele>71.54</ele>
        <time>2013-04-07T13:59:29Z</time>
      </trkpt>
      <trkpt lat="49.47953" lon="2.04534">
        <ele>71.34</ele>
        <time>2013-04-07T13:59:43Z</time>
      </trkpt>
    </trkseg>
  </trk>
</gpx>